Time;durP1;ratioP1;P1;durP2;ratioP2;P2;SDS_P1;SDS_P2;PMS_P1;PMS_P2;Temp;Humidity;BMP_temperature;BMP_pressure;BME280_temperature;BME280_humidity;BME280_pressure;Samples;Min_cycle;Max_cycle;Signal;HPM_P1;HPM_P2
2022/02/28 00:02:22;;;;;;;20.65;11.38;;;-0.90;99.90;;;;;;5104803;28;20128;-82
2022/02/28 00:05:09;;;;;;;22.42;12.13;;;-1.10;99.90;;;;;;5095125;28;20048;-81
2022/02/28 00:08:04;;;;;;;19.08;11.15;;;-1.30;99.90;;;;;;5094475;28;20040;-81
2022/02/28 00:10:51;;;;;;;18.77;11.27;;;-1.50;99.90;;;;;;5085004;28;20044;-80
2022/02/28 00:13:38;;;;;;;20.05;12.18;;;-1.50;1.00;;;;;;5105487;28;20051;-81
2022/02/28 00:16:26;;;;;;;19.92;11.93;;;-1.60;99.90;;;;;;5109978;28;20044;-82
2022/02/28 00:19:13;;;;;;;22.50;12.02;;;-1.60;99.90;;;;;;5093652;28;20157;-82
2022/02/28 00:22:05;;;;;;;22.02;11.85;;;-1.60;1.00;;;;;;5099974;28;20124;-82
2022/02/28 00:24:53;;;;;;;20.58;11.93;;;-1.60;99.90;;;;;;5094873;28;20126;-82
2022/02/28 00:27:46;;;;;;;22.17;11.90;;;-1.70;99.90;;;;;;5110294;28;20067;-83
2022/02/28 00:30:48;;;;;;;24.48;12.38;;;-1.60;1.00;;;;;;5104288;28;20148;-82
2022/02/28 00:33:35;;;;;;;20.75;12.00;;;-1.50;99.90;;;;;;5098518;28;20062;-83
2022/02/28 00:36:22;;;;;;;21.08;10.93;;;-1.30;99.90;;;;;;5106414;28;20065;-82
2022/02/28 00:39:13;;;;;;;25.13;12.25;;;-1.30;34.60;;;;;;5094656;28;20117;-80
2022/02/28 00:42:12;;;;;;;20.90;12.00;;;-1.40;99.90;;;;;;5094891;28;20558;-81
2022/02/28 00:45:03;;;;;;;24.42;12.38;;;-1.40;99.90;;;;;;5094537;28;20048;-81
2022/02/28 00:47:53;;;;;;;21.67;13.55;;;-1.50;99.90;;;;;;5101406;28;20040;-81
2022/02/28 00:50:40;;;;;;;22.17;11.45;;;-1.60;1.00;;;;;;5099541;28;20132;-82
2022/02/28 00:53:27;;;;;;;21.88;12.25;;;-1.70;99.90;;;;;;5094322;28;20087;-82
2022/02/28 00:56:15;;;;;;;21.20;12.23;;;-1.80;77.00;;;;;;5100130;28;20105;-81
2022/02/28 00:59:18;;;;;;;25.85;12.40;;;-2.00;1.00;;;;;;5094994;28;20126;-82
2022/02/28 01:02:06;;;;;;;25.20;13.80;;;-2.20;99.90;;;;;;5108515;28;20114;-82
2022/02/28 01:04:56;;;;;;;24.42;14.38;;;-2.30;98.90;;;;;;5099958;28;20408;-81
2022/02/28 01:07:43;;;;;;;22.85;12.93;;;-2.40;99.90;;;;;;5094955;28;20052;-82
2022/02/28 01:10:41;;;;;;;26.65;12.35;;;-2.40;99.90;;;;;;5095012;28;20437;-81
2022/02/28 01:13:29;;;;;;;22.55;12.57;;;-2.50;1.00;;;;;;5094360;28;20127;-81
2022/02/28 01:16:16;;;;;;;24.25;12.60;;;-2.60;99.90;;;;;;5085517;28;20144;-81
2022/02/28 01:19:04;;;;;;;25.52;13.77;;;-2.60;1.00;;;;;;5093668;28;20036;-81
2022/02/28 01:22:15;;;;;;;26.48;13.25;;;-2.70;1.00;;;;;;5111097;27;20093;-80
2022/02/28 01:25:03;;;;;;;23.35;12.90;;;-2.80;1.00;;;;;;5094052;28;20059;-83
2022/02/28 01:27:50;;;;;;;24.92;13.07;;;-2.90;77.50;;;;;;5092842;28;20063;-82
2022/02/28 01:30:38;;;;;;;27.48;13.13;;;-2.90;99.90;;;;;;5094770;28;20128;-80
2022/02/28 01:33:26;;;;;;;30.73;14.07;;;-2.80;99.90;;;;;;5096461;28;20374;-82
2022/02/28 01:36:13;;;;;;;26.45;13.85;;;-2.80;96.20;;;;;;5095787;28;20135;-83
2022/02/28 01:39:05;;;;;;;23.90;13.60;;;-2.80;99.90;;;;;;5087243;28;20052;-81
2022/02/28 01:41:53;;;;;;;24.02;14.15;;;-2.80;99.90;;;;;;5098786;28;20358;-81
2022/02/28 01:44:41;;;;;;;24.65;14.00;;;-2.80;99.90;;;;;;5094121;28;20071;-82
2022/02/28 01:47:29;;;;;;;26.92;14.48;;;-2.90;99.90;;;;;;5085255;28;20436;-81
2022/02/28 01:50:17;;;;;;;25.90;13.95;;;-2.90;99.90;;;;;;5102258;28;20052;-81
2022/02/28 01:53:13;;;;;;;27.20;14.95;;;-2.90;99.90;;;;;;5093815;28;20066;-82
2022/02/28 01:56:00;;;;;;;25.70;14.70;;;-3.00;99.90;;;;;;5093780;28;20046;-81
2022/02/28 01:58:47;;;;;;;29.38;15.25;;;-3.00;99.90;;;;;;5093991;28;20468;-82
2022/02/28 02:01:44;;;;;;;25.10;14.88;;;-3.10;99.90;;;;;;5100431;28;20051;-81
2022/02/28 02:04:38;;;;;;;27.92;14.15;;;-3.10;99.90;;;;;;5106340;28;20047;-82
2022/02/28 02:07:26;;;;;;;27.02;14.70;;;-3.10;99.90;;;;;;5095274;28;20095;-82
2022/02/28 02:10:14;;;;;;;26.98;15.30;;;-3.00;99.90;;;;;;5092872;28;20177;-81
2022/02/28 02:13:01;;;;;;;27.52;14.45;;;-3.00;99.90;;;;;;5078649;28;20055;-83
2022/02/28 02:15:56;;;;;;;27.63;15.75;;;-3.10;99.90;;;;;;5093508;28;20505;-82
2022/02/28 02:18:43;;;;;;;30.77;15.55;;;-3.10;99.90;;;;;;5096594;28;20048;-82
2022/02/28 02:21:31;;;;;;;25.90;14.35;;;-3.10;99.90;;;;;;5104926;28;20047;-83
2022/02/28 02:24:18;;;;;;;26.58;14.70;;;-3.20;99.90;;;;;;5097569;28;20112;-81
2022/02/28 02:27:19;;;;;;;30.40;15.15;;;-3.30;99.90;;;;;;5094596;28;20044;-81
2022/02/28 02:30:14;;;;;;;31.52;15.82;;;-3.30;99.90;;;;;;5094702;28;20521;-82
2022/02/28 02:33:04;;;;;;;30.70;15.52;;;-3.20;99.90;;;;;;5093113;28;20044;-81
2022/02/28 02:35:53;;;;;;;30.63;16.08;;;-3.20;99.90;;;;;;5096011;28;20044;-81
2022/02/28 02:38:42;;;;;;;32.45;15.93;;;-3.20;99.90;;;;;;5106001;28;20176;-80
2022/02/28 02:41:55;;;;;;;34.83;15.00;;;-3.20;99.90;;;;;;5099804;28;20326;-82
2022/02/28 02:44:42;;;;;;;29.55;15.98;;;-3.30;99.90;;;;;;5112146;28;20421;-82
2022/02/28 02:47:32;;;;;;;33.65;16.33;;;-3.30;99.90;;;;;;5094360;28;20148;-82
2022/02/28 02:50:25;;;;;;;33.20;15.98;;;-3.20;1.00;;;;;;5093504;28;20092;-82
2022/02/28 02:53:16;;;;;;;29.60;15.55;;;-3.20;99.90;;;;;;5087534;28;20056;-82
2022/02/28 02:56:03;;;;;;;27.55;15.70;;;-3.20;99.90;;;;;;5102463;28;20087;-82
2022/02/28 02:59:06;;;;;;;29.67;15.30;;;-3.30;1.00;;;;;;5098124;28;20039;-82
2022/02/28 03:02:00;;;;;;;33.22;16.50;;;-3.20;1.00;;;;;;5096828;28;20088;-83
2022/02/28 03:05:03;;;;;;;30.55;15.60;;;-3.10;1.00;;;;;;5086714;28;20449;-82
2022/02/28 03:07:51;;;;;;;32.03;16.00;;;-3.00;99.90;;;;;;5092887;28;20040;-82
2022/02/28 03:11:02;;;;;;;32.80;15.02;;;-3.00;99.90;;;;;;5081833;28;20464;-82
2022/02/28 03:13:49;;;;;;;30.30;15.43;;;-3.00;99.90;;;;;;5084789;28;20058;-82
2022/02/28 03:16:42;;;;;;;32.10;16.60;;;-3.00;99.90;;;;;;5084142;28;20063;-82
2022/02/28 03:19:29;;;;;;;;;;;-3.00;99.90;;;;;;5083628;28;20055;-82
2022/02/28 03:22:27;;;;;;;31.83;16.58;;;-3.10;99.90;;;;;;5101970;28;20333;-82
2022/02/28 03:25:16;;;;;;;25.17;15.00;;;-3.20;99.90;;;;;;5098510;28;20491;-81
2022/02/28 03:28:03;;;;;;;25.92;15.95;;;-3.30;99.90;;;;;;5084653;28;20101;-82
2022/02/28 03:30:53;;;;;;;32.60;15.95;;;-3.40;99.90;;;;;;5080905;28;20062;-82
2022/02/28 03:33:46;;;;;;;28.35;16.33;;;-3.40;1.00;;;;;;5096865;28;20108;-82
2022/02/28 03:36:43;;;;;;;27.58;14.73;;;-3.40;1.00;;;;;;5090945;28;20052;-82
2022/02/28 03:39:30;;;;;;;29.45;15.23;;;-3.50;1.00;;;;;;5088058;28;20078;-82
2022/02/28 03:42:46;;;;;;;28.77;15.75;;;-3.50;1.00;;;;;;5100906;28;20082;-82
2022/02/28 03:45:36;;;;;;;26.98;15.65;;;-3.60;1.00;;;;;;5078324;28;20112;-83
2022/02/28 03:48:47;;;;;;;33.70;16.58;;;-3.60;1.00;;;;;;5102875;28;20070;-83
2022/02/28 03:51:44;;;;;;;30.70;16.45;;;-3.60;1.00;;;;;;5093439;28;20071;-83
2022/02/28 03:54:31;;;;;;;34.42;16.48;;;-3.60;1.00;;;;;;5097678;28;20148;-81
2022/02/28 03:57:27;;;;;;;29.63;15.55;;;-3.60;1.00;;;;;;5099434;28;20472;-81
2022/02/28 04:00:15;;;;;;;32.50;15.73;;;-3.60;1.00;;;;;;5074734;28;20040;-82
2022/02/28 04:03:02;;;;;;;34.72;17.42;;;-3.60;1.00;;;;;;5090963;28;20055;-82
2022/02/28 04:05:56;;;;;;;38.28;17.48;;;-3.70;1.00;;;;;;5103918;28;20040;-82
2022/02/28 04:08:43;;;;;;;30.65;16.65;;;-3.80;1.00;;;;;;5105424;28;20080;-83
2022/02/28 04:11:30;;;;;;;33.38;16.95;;;-3.80;1.00;;;;;;5108175;28;20117;-80
2022/02/28 04:14:18;;;;;;;34.88;18.25;;;-3.90;1.00;;;;;;5092690;28;20473;-83
2022/02/28 04:17:06;;;;;;;32.30;17.23;;;-3.90;1.00;;;;;;5080999;28;20383;-83
2022/02/28 04:19:54;;;;;;;30.60;16.98;;;-3.90;1.00;;;;;;5100071;28;20044;-82
2022/02/28 04:22:51;;;;;;;31.23;17.98;;;-3.80;1.00;;;;;;5092514;28;20040;-82
2022/02/28 04:25:44;;;;;;;30.63;17.35;;;-3.80;1.00;;;;;;5079002;28;20092;-81
2022/02/28 04:28:34;;;;;;;36.38;18.30;;;-3.90;1.00;;;;;;5097100;28;20040;-81
2022/02/28 04:31:21;;;;;;;35.38;17.60;;;-3.80;1.00;;;;;;5104824;28;20157;-82
2022/02/28 04:34:20;;;;;;;35.72;17.80;;;-3.60;1.00;;;;;;5097661;28;20047;-81
2022/02/28 04:37:07;;;;;;;31.83;17.98;;;-3.30;1.00;;;;;;5107306;28;20166;-82
2022/02/28 04:39:57;;;;;;;36.88;17.73;;;-3.20;1.00;;;;;;5097037;28;20075;-82
2022/02/28 04:42:48;;;;;;;37.00;17.08;;;-3.10;1.00;;;;;;5091213;28;20040;-81
2022/02/28 04:45:35;;;;;;;34.28;16.88;;;-3.00;1.00;;;;;;5091339;28;20137;-82
2022/02/28 04:48:25;;;;;;;31.30;17.15;;;-3.00;1.00;;;;;;5094973;28;20069;-82
2022/02/28 04:51:12;;;;;;;32.78;16.08;;;-2.90;1.00;;;;;;5080712;28;20078;-82
2022/02/28 04:54:02;;;;;;;32.45;17.13;;;-2.90;99.90;;;;;;5090269;28;20165;-82
2022/02/28 04:56:58;;;;;;;30.35;15.98;;;-3.00;99.90;;;;;;5101186;28;20050;-81
2022/02/28 05:00:15;;;;;;;29.13;17.48;;;-3.20;99.90;;;;;;5103723;28;20077;-81
2022/02/28 05:03:08;;;;;;;28.05;17.05;;;-3.30;1.00;;;;;;5077660;28;20048;-81
2022/02/28 05:06:16;;;;;;;32.15;16.73;;;-3.40;1.00;;;;;;5104554;28;20055;-80
2022/02/28 05:09:15;;;;;;;29.00;16.70;;;-3.50;1.00;;;;;;5098501;28;20107;-83
2022/02/28 05:12:02;;;;;;;34.15;17.55;;;-3.60;1.00;;;;;;5097714;28;20102;-81
2022/02/28 05:14:59;;;;;;;30.05;16.75;;;-3.60;1.00;;;;;;5096494;28;20055;-83
2022/02/28 05:17:46;;;;;;;35.00;18.10;;;-3.70;1.00;;;;;;5106837;28;20073;-81
2022/02/28 05:20:35;;;;;;;32.50;16.70;;;-3.80;1.00;;;;;;5095645;28;20122;-83
2022/02/28 05:23:24;;;;;;;31.63;16.95;;;-3.90;1.00;;;;;;5077775;28;20056;-81
2022/02/28 05:26:28;;;;;;;34.15;16.48;;;-4.00;1.00;;;;;;5096285;28;20115;-81
2022/02/28 05:29:23;;;;;;;36.83;18.75;;;-4.00;1.00;;;;;;5083933;28;20062;-83
2022/02/28 05:32:24;;;;;;;33.33;17.15;;;-4.10;1.00;;;;;;5103997;28;20108;-82
2022/02/28 05:35:28;;;;;;;33.22;16.60;;;-4.20;1.00;;;;;;5083793;28;20044;-81
2022/02/28 05:38:17;;;;;;;31.88;17.35;;;-4.20;1.00;;;;;;5094285;28;20117;-83
2022/02/28 05:53:40;;;;;;;34.63;18.00;;;-4.30;1.00;;;;;;4967192;28;20115;-83
2022/02/28 05:56:30;;;;;;;39.88;18.23;;;-4.40;1.00;;;;;;5092125;28;20063;-85
2022/02/28 05:59:17;;;;;;;44.85;20.27;;;-4.40;6.30;;;;;;5114407;28;20138;-82
2022/02/28 06:02:04;;;;;;;40.65;18.38;;;-4.40;7.40;;;;;;5112602;28;20104;-83
2022/02/28 06:04:51;;;;;;;40.22;18.90;;;-4.40;10.80;;;;;;5108636;28;20167;-82
2022/02/28 06:07:41;;;;;;;37.60;18.40;;;-4.40;15.10;;;;;;5105189;28;20139;-83
2022/02/28 06:10:28;;;;;;;40.08;18.92;;;-4.40;10.60;;;;;;5114728;27;20050;-83
2022/02/28 06:13:16;;;;;;;42.22;19.77;;;-4.50;13.40;;;;;;5101006;28;20055;-82
2022/02/28 06:16:06;;;;;;;41.85;20.92;;;-4.50;14.60;;;;;;5084979;28;20048;-82
2022/02/28 06:18:54;;;;;;;40.17;20.83;;;-4.50;10.10;;;;;;5096070;28;20463;-82
2022/02/28 06:21:41;;;;;;;40.47;20.83;;;-4.50;18.60;;;;;;5109632;27;20036;-82
2022/02/28 06:24:30;;;;;;;47.45;22.92;;;-4.40;25.30;;;;;;5094897;28;20044;-83
2022/02/28 06:27:22;;;;;;;47.95;23.40;;;-4.30;27.40;;;;;;5109003;28;20051;-81
2022/02/28 06:30:09;;;;;;;45.30;21.95;;;-4.20;22.00;;;;;;5098856;28;20205;-82
2022/02/28 06:33:00;;;;;;;41.10;21.05;;;-4.20;19.40;;;;;;5098632;28;20044;-82
2022/02/28 06:36:09;;;;;;;47.03;23.55;;;-4.20;16.10;;;;;;5086091;28;20194;-82
2022/02/28 06:39:02;;;;;;;51.20;23.60;;;-4.20;14.20;;;;;;5091585;28;20108;-87
2022/02/28 06:41:50;;;;;;;49.95;22.73;;;-4.10;12.50;;;;;;5118591;27;20040;-88
2022/02/28 06:44:37;;;;;;;53.83;24.35;;;-4.10;13.40;;;;;;5104457;28;20047;-83
2022/02/28 06:47:24;;;;;;;45.13;22.90;;;-4.00;16.20;;;;;;5094662;28;20140;-83
2022/02/28 06:50:12;;;;;;;65.47;30.95;;;-3.80;21.60;;;;;;5083193;28;20051;-85
2022/02/28 06:53:00;;;;;;;53.70;25.73;;;-3.50;25.90;;;;;;5100965;27;20056;-84
2022/02/28 06:55:55;;;;;;;40.63;20.35;;;-3.00;27.40;;;;;;5094906;28;20078;-85
2022/02/28 06:58:45;;;;;;;37.35;19.88;;;-2.60;1.00;;;;;;5084088;28;20063;-85
2022/02/28 07:01:35;;;;;;;44.60;20.58;;;-2.00;99.90;;;;;;5099664;28;20039;-83
2022/02/28 07:04:22;;;;;;;38.08;19.35;;;-1.40;99.90;;;;;;5098581;28;20040;-82
2022/02/28 07:07:12;;;;;;;35.55;18.85;;;-0.60;1.00;;;;;;5076631;28;20079;-82
2022/02/28 07:10:00;;;;;;;29.92;17.83;;;-0.10;99.90;;;;;;5102100;28;20047;-83
2022/02/28 07:12:50;;;;;;;30.10;17.08;;;0.40;1.00;;;;;;5106590;27;20051;-84
2022/02/28 07:15:41;;;;;;;30.02;17.63;;;0.70;1.00;;;;;;5108690;27;20043;-82
2022/02/28 07:18:30;;;;;;;28.33;16.95;;;0.80;99.90;;;;;;5104820;27;20507;-82
2022/02/28 07:21:18;;;;;;;30.35;16.08;;;0.90;56.60;;;;;;5090980;28;20115;-82
2022/02/28 07:24:06;;;;;;;28.45;16.55;;;1.30;1.00;;;;;;5099815;28;20059;-83
2022/02/28 07:26:53;;;;;;;29.17;16.15;;;1.70;99.90;;;;;;5095670;28;20047;-81
2022/02/28 07:29:40;;;;;;;29.98;14.95;;;2.10;99.90;;;;;;5079840;28;20054;-82
2022/02/28 07:32:27;;;;;;;24.77;14.90;;;2.60;99.90;;;;;;5105550;27;20207;-83
2022/02/28 07:35:18;;;;;;;26.33;15.13;;;3.20;1.00;;;;;;5091086;28;20460;-84
2022/02/28 07:38:05;;;;;;;22.98;13.77;;;3.50;1.00;;;;;;5101397;28;20091;-83
2022/02/28 07:40:52;;;;;;;26.25;14.02;;;3.70;1.00;;;;;;5085576;28;20054;-83
2022/02/28 07:43:39;;;;;;;22.55;13.75;;;4.20;99.90;;;;;;5088769;28;20044;-84
2022/02/28 07:46:26;;;;;;;19.05;13.00;;;4.50;99.90;;;;;;5088419;28;20044;-82
2022/02/28 07:49:18;;;;;;;20.48;12.80;;;4.90;1.00;;;;;;5102258;27;20048;-84
2022/02/28 07:52:06;;;;;;;20.63;12.85;;;5.10;99.90;;;;;;5081309;28;20374;-85
2022/02/28 07:54:55;;;;;;;23.55;14.18;;;5.10;78.50;;;;;;5098499;28;20044;-83
2022/02/28 07:57:42;;;;;;;23.08;13.68;;;4.60;16.30;;;;;;5096672;28;20055;-83
2022/02/28 08:00:29;;;;;;;22.92;13.38;;;4.50;45.40;;;;;;5100739;28;20115;-82
2022/02/28 08:03:19;;;;;;;25.67;13.73;;;4.50;22.30;;;;;;5096231;28;20040;-84
2022/02/28 08:06:07;;;;;;;20.17;13.57;;;4.60;9.00;;;;;;5091409;28;20055;-84
2022/02/28 08:08:54;;;;;;;21.92;13.75;;;4.30;1.00;;;;;;5098448;28;20040;-82
2022/02/28 08:11:44;;;;;;;20.58;13.48;;;4.10;1.00;;;;;;5101506;28;20091;-83
2022/02/28 08:14:40;;;;;;;22.33;13.45;;;4.10;1.00;;;;;;5089758;28;20044;-83
2022/02/28 08:17:30;;;;;;;20.15;12.70;;;4.40;1.00;;;;;;5098028;28;20040;-84
2022/02/28 08:20:20;;;;;;;18.63;11.85;;;4.80;1.00;;;;;;5083219;28;20048;-82
2022/02/28 08:23:07;;;;;;;21.88;13.05;;;5.40;1.00;;;;;;5097758;28;20437;-83
2022/02/28 08:25:57;;;;;;;19.38;12.23;;;5.80;55.90;;;;;;5100385;28;20139;-84
2022/02/28 08:28:44;;;;;;;21.00;12.18;;;6.20;79.50;;;;;;5093630;28;20056;-85
2022/02/28 08:31:34;;;;;;;20.20;12.05;;;6.00;99.90;;;;;;5080016;28;20067;-83
2022/02/28 08:34:21;;;;;;;20.77;12.07;;;6.30;99.90;;;;;;5087847;28;20051;-82
2022/02/28 08:37:11;;;;;;;17.73;11.88;;;6.30;1.00;;;;;;5092398;28;20132;-83
2022/02/28 08:39:59;;;;;;;17.10;11.60;;;6.60;99.90;;;;;;5084720;28;20047;-82
2022/02/28 08:42:46;;;;;;;20.08;11.40;;;6.80;1.00;;;;;;5084497;28;20096;-83
2022/02/28 08:45:38;;;;;;;18.90;11.43;;;7.00;99.90;;;;;;5103808;28;20358;-86
2022/02/28 08:48:25;;;;;;;17.67;11.27;;;6.80;99.90;;;;;;5096542;28;20438;-84
2022/02/28 08:51:13;;;;;;;16.70;10.63;;;6.70;99.90;;;;;;5109657;27;20103;-84
2022/02/28 08:54:03;;;;;;;17.23;11.77;;;6.50;21.10;;;;;;5087276;28;20059;-83
2022/02/28 08:56:50;;;;;;;17.13;10.80;;;6.60;1.00;;;;;;5101238;28;20119;-85
2022/02/28 08:59:40;;;;;;;17.50;10.35;;;6.40;1.00;;;;;;5083842;28;20071;-82
2022/02/28 09:02:27;;;;;;;18.05;11.20;;;5.80;1.00;;;;;;5109372;28;20044;-85
2022/02/28 09:05:15;;;;;;;16.05;10.07;;;5.60;1.00;;;;;;5099532;28;20066;-84
2022/02/28 09:08:03;;;;;;;16.60;10.13;;;5.30;99.90;;;;;;5107377;28;20036;-88
2022/02/28 09:10:51;;;;;;;15.95;10.43;;;5.50;99.90;;;;;;5097747;28;20032;-83
2022/02/28 09:13:38;;;;;;;17.52;10.27;;;6.00;99.90;;;;;;5097638;28;20157;-84
2022/02/28 09:16:25;;;;;;;19.00;10.38;;;6.20;99.90;;;;;;5102497;28;20114;-84
2022/02/28 09:19:13;;;;;;;16.63;10.55;;;6.30;99.90;;;;;;5092316;28;20056;-84
2022/02/28 09:22:05;;;;;;;15.40;10.10;;;6.30;99.90;;;;;;5091143;28;20123;-85
2022/02/28 09:24:52;;;;;;;19.73;10.65;;;6.80;99.90;;;;;;5092623;28;20457;-82
2022/02/28 09:27:45;;;;;;;19.65;11.15;;;7.10;99.90;;;;;;5097716;28;20035;-82
2022/02/28 09:30:38;;;;;;;14.85;10.00;;;7.80;25.30;;;;;;5100297;28;20074;-82
2022/02/28 09:33:25;;;;;;;16.45;9.93;;;8.20;99.90;;;;;;5098493;28;20044;-82
2022/02/28 09:36:13;;;;;;;14.55;9.38;;;9.10;99.90;;;;;;5101752;28;20048;-84
2022/02/28 09:39:00;;;;;;;14.82;9.77;;;9.60;99.90;;;;;;5095998;28;20051;-85
2022/02/28 09:41:57;;;;;;;13.73;9.93;;;10.00;1.00;;;;;;5088746;28;20167;-83
2022/02/28 09:44:51;;;;;;;15.15;9.55;;;10.20;99.90;;;;;;5090065;28;20039;-84
2022/02/28 09:47:43;;;;;;;15.32;9.80;;;10.40;1.00;;;;;;5099731;28;20441;-83
2022/02/28 09:50:30;;;;;;;14.30;9.82;;;11.40;99.90;;;;;;5083070;28;20124;-84
2022/02/28 09:53:19;;;;;;;13.07;8.55;;;12.00;99.90;;;;;;5101045;28;20811;-84
2022/02/28 09:56:09;;;;;;;12.65;8.23;;;12.30;42.80;;;;;;5099948;28;20421;-83
2022/02/28 09:58:59;;;;;;;13.05;9.13;;;12.40;99.90;;;;;;5103494;28;20417;-86
2022/02/28 10:02:06;;;;;;;13.02;8.90;;;12.60;1.00;;;;;;5088813;28;20040;-83
2022/02/28 10:04:56;;;;;;;13.68;9.85;;;12.20;1.00;;;;;;5100875;28;20481;-85
2022/02/28 10:07:54;;;;;;;14.48;9.95;;;12.40;57.90;;;;;;5100552;28;20098;-86
2022/02/28 10:10:47;;;;;;;12.05;8.60;;;12.90;99.90;;;;;;5099792;28;20040;-86
2022/02/28 10:13:39;;;;;;;13.48;9.02;;;13.70;99.90;;;;;;5107458;28;20066;-84
2022/02/28 10:16:33;;;;;;;13.15;8.02;;;13.70;99.90;;;;;;5100657;28;20169;-89
2022/02/28 10:19:29;;;;;;;15.48;8.32;;;14.50;99.90;;;;;;5101480;28;20083;-87
2022/02/28 10:22:16;;;;;;;;;;;14.50;3.50;;;;;;5101576;28;20180;-86
2022/02/28 10:25:06;;;;;;;13.52;9.27;;;14.50;99.90;;;;;;5100306;28;19924;-84
2022/02/28 10:28:10;;;;;;;11.05;8.57;;;14.10;1.00;;;;;;5100619;28;20058;-84
2022/02/28 10:31:04;;;;;;;12.25;8.75;;;13.70;99.90;;;;;;5104809;28;20088;-83
2022/02/28 10:34:00;;;;;;;13.13;8.48;;;13.50;65.90;;;;;;5109518;27;20442;-83
2022/02/28 10:36:59;;;;;;;12.25;8.27;;;12.80;99.90;;;;;;5082829;28;20066;-82
2022/02/28 10:40:00;;;;;;;12.80;8.43;;;13.50;99.90;;;;;;5095677;28;20051;-85
2022/02/28 10:42:55;;;;;;;13.30;8.57;;;14.00;99.90;;;;;;5080797;28;20036;-86
2022/02/28 10:45:47;;;;;;;14.63;8.20;;;14.20;1.00;;;;;;5104005;28;20039;-85
2022/02/28 10:48:37;;;;;;;12.33;8.07;;;14.40;1.00;;;;;;5110208;27;20044;-88
2022/02/28 10:51:25;;;;;;;12.35;7.60;;;14.10;4.20;;;;;;5100637;28;20107;-87
2022/02/28 10:54:25;;;;;;;13.85;8.68;;;14.20;99.90;;;;;;5100677;28;20121;-88
2022/02/28 10:57:18;;;;;;;11.93;8.80;;;14.90;99.90;;;;;;5104781;28;20051;-85
2022/02/28 11:00:14;;;;;;;10.40;8.05;;;15.70;99.90;;;;;;5092112;28;20048;-86
2022/02/28 11:03:21;;;;;;;11.90;8.30;;;14.90;1.00;;;;;;5094711;28;20327;-84
2022/02/28 11:06:13;;;;;;;11.20;7.85;;;14.40;99.90;;;;;;5081737;28;20050;-86
2022/02/28 11:09:01;;;;;;;12.90;7.80;;;15.10;99.90;;;;;;5098596;28;20105;-84
2022/02/28 11:11:48;;;;;;;13.50;8.10;;;15.30;99.90;;;;;;5102071;27;20093;-84
2022/02/28 11:14:36;;;;;;;11.05;7.25;;;15.40;99.90;;;;;;5100777;28;20457;-84
2022/02/28 11:17:25;;;;;;;9.65;7.45;;;15.50;99.90;;;;;;5099532;28;20131;-84
2022/02/28 11:20:20;;;;;;;11.23;7.38;;;14.60;1.00;;;;;;5102141;28;20142;-87
2022/02/28 14:20:16;;;;;;;13.20;8.82;;;17.90;25.30;;;;;;5119646;27;20722;-83
2022/02/28 14:23:12;;;;;;;12.82;9.13;;;17.20;26.10;;;;;;5104021;28;20153;-82
2022/02/28 14:26:09;;;;;;;15.60;10.32;;;17.10;26.80;;;;;;5085609;28;20047;-82
2022/02/28 14:29:08;;;;;;;14.15;9.88;;;16.80;26.90;;;;;;5101080;28;20036;-83
2022/02/28 14:31:57;;;;;;;11.85;8.75;;;17.60;26.70;;;;;;5088467;28;20399;-82
2022/02/28 14:34:49;;;;;;;11.57;8.70;;;18.60;26.50;;;;;;5103911;28;20151;-86
2022/02/28 14:37:37;;;;;;;11.83;8.40;;;18.60;25.50;;;;;;5103800;28;20154;-85
2022/02/28 14:40:27;;;;;;;17.35;8.43;;;17.70;26.40;;;;;;5105168;28;20274;-85
2022/02/28 14:43:17;;;;;;;12.68;8.38;;;17.10;26.40;;;;;;5103452;28;20064;-85
2022/02/28 14:46:06;;;;;;;12.75;8.27;;;17.40;26.70;;;;;;5107564;28;20043;-83
2022/02/28 14:48:54;;;;;;;11.90;8.38;;;17.40;26.40;;;;;;5084637;28;20354;-87
2022/02/28 14:51:44;;;;;;;12.80;8.55;;;17.20;26.50;;;;;;5095858;28;20043;-87
2022/02/28 14:54:31;;;;;;;13.68;8.63;;;17.10;26.50;;;;;;5107978;28;20036;-83
2022/02/28 14:57:18;;;;;;;14.50;8.95;;;16.40;27.00;;;;;;5107694;28;20035;-84
2022/02/28 15:00:07;;;;;;;12.90;8.98;;;16.00;27.60;;;;;;5107446;28;20059;-87
2022/02/28 15:02:57;;;;;;;13.02;8.77;;;16.00;29.10;;;;;;5108071;28;20044;-84
2022/02/28 15:05:45;;;;;;;13.30;8.52;;;16.00;27.80;;;;;;5103897;28;20054;-85
2022/02/28 15:08:33;;;;;;;13.57;8.70;;;15.70;27.30;;;;;;5107830;28;20039;-86
2022/02/28 15:11:20;;;;;;;14.70;9.05;;;15.60;28.30;;;;;;5084814;28;20044;-85
2022/02/28 15:14:10;;;;;;;12.43;8.88;;;14.90;29.10;;;;;;5105207;28;20084;-85
2022/02/28 15:16:57;;;;;;;13.95;8.70;;;14.30;28.80;;;;;;5107503;28;20051;-86
2022/02/28 15:19:45;;;;;;;15.68;9.05;;;14.70;29.20;;;;;;5080114;28;20104;-86
2022/02/28 15:22:34;;;;;;;13.18;8.27;;;14.90;29.10;;;;;;5095830;28;20050;-88
2022/02/28 15:25:21;;;;;;;17.30;9.30;;;14.60;29.00;;;;;;5070515;28;20147;-85
2022/02/28 15:28:11;;;;;;;13.30;7.47;;;15.00;29.00;;;;;;5074515;28;20101;-83
2022/02/28 15:30:58;;;;;;;11.43;8.32;;;14.80;29.00;;;;;;5071007;28;20059;-84
2022/02/28 15:33:48;;;;;;;14.77;8.40;;;14.80;29.10;;;;;;5075049;28;20051;-85
2022/02/28 15:36:35;;;;;;;11.23;7.63;;;14.20;28.80;;;;;;5089839;28;20351;-85
2022/02/28 15:39:22;;;;;;;10.13;7.53;;;14.40;28.60;;;;;;5078123;28;20055;-85
2022/02/28 15:42:10;;;;;;;12.43;8.65;;;14.40;28.30;;;;;;5082197;28;20819;-85
2022/02/28 15:44:57;;;;;;;11.13;7.55;;;14.70;27.60;;;;;;5090454;28;20060;-85
2022/02/28 15:47:45;;;;;;;11.45;8.02;;;14.70;28.40;;;;;;5071733;28;20126;-84
2022/02/28 15:50:33;;;;;;;13.73;7.97;;;15.00;27.70;;;;;;5087084;28;20040;-83
2022/02/28 15:53:22;;;;;;;11.73;7.95;;;14.90;27.70;;;;;;5089319;28;20048;-83
2022/02/28 15:56:10;;;;;;;13.35;7.63;;;14.50;27.70;;;;;;5090852;28;20115;-85
2022/02/28 15:59:00;;;;;;;11.55;7.85;;;14.40;28.00;;;;;;5073861;28;20104;-84
2022/02/28 16:01:58;;;;;;;12.65;7.63;;;14.40;27.20;;;;;;5094413;28;20066;-86
2022/02/28 16:04:46;;;;;;;10.20;6.93;;;14.30;26.90;;;;;;5073939;28;20435;-86
2022/02/28 16:07:37;;;;;;;15.15;8.25;;;14.80;27.60;;;;;;5089671;28;20045;-85
2022/02/28 16:10:25;;;;;;;15.63;9.15;;;14.40;27.20;;;;;;5093700;28;20118;-86
2022/02/28 16:13:15;;;;;;;12.00;7.57;;;13.50;28.10;;;;;;5082294;28;20069;-85
2022/02/28 16:16:02;;;;;;;11.38;7.63;;;13.00;29.00;;;;;;5094746;28;20059;-86
2022/02/28 16:18:50;;;;;;;9.88;7.20;;;13.00;29.10;;;;;;5093463;28;20071;-86
2022/02/28 16:21:42;;;;;;;11.73;7.15;;;13.20;28.70;;;;;;5088912;28;20509;-84
2022/02/28 16:24:31;;;;;;;12.82;7.30;;;12.90;29.30;;;;;;5081096;28;20389;-85
2022/02/28 16:27:18;;;;;;;13.05;7.38;;;12.40;29.70;;;;;;5088306;28;20185;-85
2022/02/28 16:30:06;;;;;;;15.98;8.35;;;11.50;30.00;;;;;;5094160;28;20044;-84
2022/02/28 16:32:54;;;;;;;11.57;7.65;;;10.50;32.30;;;;;;5090357;28;20063;-84
2022/02/28 16:35:46;;;;;;;12.95;7.90;;;9.30;34.50;;;;;;5087867;28;20398;-84
2022/02/28 16:38:34;;;;;;;14.80;8.07;;;8.20;36.60;;;;;;5074609;28;20151;-84
2022/02/28 16:41:24;;;;;;;12.10;8.27;;;7.60;38.50;;;;;;5094092;28;20351;-83
2022/02/28 16:44:14;;;;;;;16.75;9.05;;;7.20;39.50;;;;;;5087330;28;20063;-85
2022/02/28 16:47:01;;;;;;;17.00;9.25;;;6.80;40.30;;;;;;5093618;28;20097;-84
2022/02/28 16:49:49;;;;;;;11.45;7.63;;;6.60;40.30;;;;;;5091405;28;20097;-84
2022/02/28 16:52:37;;;;;;;13.25;7.90;;;6.50;41.10;;;;;;5105975;28;20075;-84
2022/02/28 16:55:26;;;;;;;18.45;9.00;;;6.30;41.30;;;;;;5089111;28;20044;-84
2022/02/28 16:58:13;;;;;;;17.30;8.90;;;6.20;41.40;;;;;;5080474;28;20041;-84
2022/02/28 17:01:01;;;;;;;16.17;8.68;;;6.00;41.70;;;;;;5107142;28;20120;-85
2022/02/28 17:03:48;;;;;;;20.85;10.63;;;5.90;42.20;;;;;;5097995;28;20032;-82
2022/02/28 17:06:40;;;;;;;17.48;9.40;;;5.80;42.40;;;;;;5114604;28;20118;-81
2022/02/28 17:09:30;;;;;;;16.70;9.30;;;5.70;42.60;;;;;;5104200;28;20062;-81
2022/02/28 17:12:17;;;;;;;14.40;9.00;;;5.60;43.20;;;;;;5100965;28;20082;-85
2022/02/28 17:15:04;;;;;;;14.63;8.35;;;5.60;43.20;;;;;;5083498;28;20082;-83
2022/02/28 17:17:55;;;;;;;13.50;8.38;;;5.50;43.40;;;;;;5099844;28;20044;-85
2022/02/28 17:20:46;;;;;;;14.63;8.43;;;5.40;43.60;;;;;;5091229;28;20044;-84
2022/02/28 17:23:35;;;;;;;14.35;8.60;;;5.30;43.60;;;;;;5105439;28;20072;-85
2022/02/28 17:26:23;;;;;;;17.65;9.23;;;5.30;43.70;;;;;;5082984;28;20383;-81
2022/02/28 17:29:11;;;;;;;14.75;9.20;;;5.20;44.40;;;;;;5094752;28;20087;-83
2022/02/28 17:32:01;;;;;;;14.95;9.00;;;5.00;44.50;;;;;;5098888;28;20055;-83
2022/02/28 17:34:49;;;;;;;15.43;8.25;;;4.90;45.30;;;;;;5095201;28;20045;-83
2022/02/28 17:37:41;;;;;;;18.27;8.70;;;4.70;46.30;;;;;;5079696;28;20359;-83
2022/02/28 17:40:28;;;;;;;18.17;10.48;;;4.50;46.70;;;;;;5083670;28;20040;-83
2022/02/28 17:43:16;;;;;;;18.65;9.00;;;4.40;47.40;;;;;;5083178;28;20059;-82
2022/02/28 17:46:05;;;;;;;17.08;9.35;;;4.40;48.00;;;;;;5079805;28;20473;-83